sensor_id;sensor_type;location;lat;lon;timestamp;P1;durP1;ratioP1;P2;durP2;ratioP2
58152;SDS011;43967;51.634;5.566;2023-08-31T00:04:07;6.88;;;1.65;;
58152;SDS011;43967;51.634;5.566;2023-08-31T00:09:28;5.50;;;1.60;;
58152;SDS011;43967;51.634;5.566;2023-08-31T00:14:49;5.93;;;1.50;;
58152;SDS011;43967;51.634;5.566;2023-08-31T00:20:11;7.80;;;1.63;;
58152;SDS011;43967;51.634;5.566;2023-08-31T00:25:32;5.65;;;1.63;;
58152;SDS011;43967;51.634;5.566;2023-08-31T00:30:53;6.68;;;2.05;;
58152;SDS011;43967;51.634;5.566;2023-08-31T00:36:15;5.53;;;1.40;;
58152;SDS011;43967;51.634;5.566;2023-08-31T00:41:36;7.25;;;1.65;;
58152;SDS011;43967;51.634;5.566;2023-08-31T00:46:58;7.00;;;1.50;;
58152;SDS011;43967;51.634;5.566;2023-08-31T00:52:19;8.73;;;1.90;;
58152;SDS011;43967;51.634;5.566;2023-08-31T00:57:41;6.40;;;1.70;;
58152;SDS011;43967;51.634;5.566;2023-08-31T01:03:07;6.57;;;1.50;;
58152;SDS011;43967;51.634;5.566;2023-08-31T01:08:38;6.37;;;1.83;;
58152;SDS011;43967;51.634;5.566;2023-08-31T01:14:33;5.77;;;1.67;;
58152;SDS011;43967;51.634;5.566;2023-08-31T01:19:59;5.80;;;1.85;;
58152;SDS011;43967;51.634;5.566;2023-08-31T01:25:21;5.22;;;1.50;;
58152;SDS011;43967;51.634;5.566;2023-08-31T01:30:43;7.30;;;1.80;;
58152;SDS011;43967;51.634;5.566;2023-08-31T01:36:06;5.70;;;1.60;;
58152;SDS011;43967;51.634;5.566;2023-08-31T01:41:33;5.97;;;1.55;;
58152;SDS011;43967;51.634;5.566;2023-08-31T01:47:02;4.97;;;1.30;;
58152;SDS011;43967;51.634;5.566;2023-08-31T01:52:25;5.50;;;1.30;;
58152;SDS011;43967;51.634;5.566;2023-08-31T01:57:46;5.90;;;1.60;;
58152;SDS011;43967;51.634;5.566;2023-08-31T02:03:07;7.30;;;1.80;;
58152;SDS011;43967;51.634;5.566;2023-08-31T02:08:29;5.00;;;1.63;;
58152;SDS011;43967;51.634;5.566;2023-08-31T02:13:50;6.47;;;1.60;;
58152;SDS011;43967;51.634;5.566;2023-08-31T02:19:11;5.43;;;1.35;;
58152;SDS011;43967;51.634;5.566;2023-08-31T02:24:32;4.30;;;1.30;;
58152;SDS011;43967;51.634;5.566;2023-08-31T02:29:54;6.03;;;1.70;;
58152;SDS011;43967;51.634;5.566;2023-08-31T02:35:16;6.32;;;1.50;;
58152;SDS011;43967;51.634;5.566;2023-08-31T02:40:37;5.43;;;1.53;;
58152;SDS011;43967;51.634;5.566;2023-08-31T02:46:02;6.22;;;1.58;;
58152;SDS011;43967;51.634;5.566;2023-08-31T02:51:23;5.47;;;1.48;;
58152;SDS011;43967;51.634;5.566;2023-08-31T02:56:45;5.90;;;1.70;;
58152;SDS011;43967;51.634;5.566;2023-08-31T03:02:06;5.27;;;1.43;;
58152;SDS011;43967;51.634;5.566;2023-08-31T03:07:27;5.88;;;1.48;;
58152;SDS011;43967;51.634;5.566;2023-08-31T03:12:48;5.05;;;1.60;;
58152;SDS011;43967;51.634;5.566;2023-08-31T03:18:10;5.23;;;1.20;;
58152;SDS011;43967;51.634;5.566;2023-08-31T03:23:31;4.88;;;1.35;;
58152;SDS011;43967;51.634;5.566;2023-08-31T03:28:52;6.47;;;1.40;;
58152;SDS011;43967;51.634;5.566;2023-08-31T03:34:13;6.17;;;1.60;;
58152;SDS011;43967;51.634;5.566;2023-08-31T03:39:35;5.20;;;1.50;;
58152;SDS011;43967;51.634;5.566;2023-08-31T03:44:56;5.88;;;1.60;;
58152;SDS011;43967;51.634;5.566;2023-08-31T03:50:18;5.93;;;2.00;;
58152;SDS011;43967;51.634;5.566;2023-08-31T03:55:39;5.40;;;1.60;;
58152;SDS011;43967;51.634;5.566;2023-08-31T04:01:00;6.63;;;1.80;;
58152;SDS011;43967;51.634;5.566;2023-08-31T04:06:22;6.55;;;1.98;;
58152;SDS011;43967;51.634;5.566;2023-08-31T04:11:43;6.40;;;1.53;;
58152;SDS011;43967;51.634;5.566;2023-08-31T04:17:04;5.30;;;1.50;;
58152;SDS011;43967;51.634;5.566;2023-08-31T04:22:26;5.90;;;1.92;;
58152;SDS011;43967;51.634;5.566;2023-08-31T04:27:47;5.53;;;1.70;;
58152;SDS011;43967;51.634;5.566;2023-08-31T04:33:08;5.55;;;1.60;;
58152;SDS011;43967;51.634;5.566;2023-08-31T04:38:30;6.20;;;1.70;;
58152;SDS011;43967;51.634;5.566;2023-08-31T04:43:52;6.23;;;2.10;;
58152;SDS011;43967;51.634;5.566;2023-08-31T04:49:13;7.63;;;2.50;;
58152;SDS011;43967;51.634;5.566;2023-08-31T04:54:35;6.20;;;2.15;;
58152;SDS011;43967;51.634;5.566;2023-08-31T04:59:56;5.75;;;1.90;;
58152;SDS011;43967;51.634;5.566;2023-08-31T05:05:17;6.37;;;1.70;;
58152;SDS011;43967;51.634;5.566;2023-08-31T05:10:38;6.20;;;1.75;;
58152;SDS011;43967;51.634;5.566;2023-08-31T05:16:00;5.78;;;1.85;;
58152;SDS011;43967;51.634;5.566;2023-08-31T05:21:21;8.67;;;2.40;;
58152;SDS011;43967;51.634;5.566;2023-08-31T05:26:42;6.43;;;2.00;;
58152;SDS011;43967;51.634;5.566;2023-08-31T05:32:04;6.78;;;2.10;;
58152;SDS011;43967;51.634;5.566;2023-08-31T05:37:25;7.93;;;2.53;;
58152;SDS011;43967;51.634;5.566;2023-08-31T05:42:46;6.20;;;2.20;;
58152;SDS011;43967;51.634;5.566;2023-08-31T05:48:08;5.90;;;1.90;;
58152;SDS011;43967;51.634;5.566;2023-08-31T05:53:29;6.90;;;2.13;;
58152;SDS011;43967;51.634;5.566;2023-08-31T05:58:51;5.63;;;1.83;;
58152;SDS011;43967;51.634;5.566;2023-08-31T06:04:12;6.30;;;1.80;;
58152;SDS011;43967;51.634;5.566;2023-08-31T06:09:34;6.20;;;1.90;;
58152;SDS011;43967;51.634;5.566;2023-08-31T06:14:55;6.27;;;1.90;;
58152;SDS011;43967;51.634;5.566;2023-08-31T06:20:16;5.68;;;1.60;;
58152;SDS011;43967;51.634;5.566;2023-08-31T06:25:37;6.03;;;1.77;;
58152;SDS011;43967;51.634;5.566;2023-08-31T06:30:59;6.13;;;1.70;;
58152;SDS011;43967;51.634;5.566;2023-08-31T06:36:20;4.97;;;1.43;;
58152;SDS011;43967;51.634;5.566;2023-08-31T06:41:42;5.88;;;2.00;;
58152;SDS011;43967;51.634;5.566;2023-08-31T06:47:03;5.50;;;1.85;;
58152;SDS011;43967;51.634;5.566;2023-08-31T06:52:25;5.80;;;1.60;;
58152;SDS011;43967;51.634;5.566;2023-08-31T06:57:49;5.22;;;1.52;;
58152;SDS011;43967;51.634;5.566;2023-08-31T07:03:10;6.22;;;1.80;;
58152;SDS011;43967;51.634;5.566;2023-08-31T07:08:32;6.70;;;1.77;;
58152;SDS011;43967;51.634;5.566;2023-08-31T07:13:53;5.40;;;1.58;;
58152;SDS011;43967;51.634;5.566;2023-08-31T07:19:14;5.40;;;1.85;;
58152;SDS011;43967;51.634;5.566;2023-08-31T07:24:35;6.07;;;1.80;;
58152;SDS011;43967;51.634;5.566;2023-08-31T07:29:57;5.17;;;1.40;;
58152;SDS011;43967;51.634;5.566;2023-08-31T07:35:18;5.80;;;1.80;;
58152;SDS011;43967;51.634;5.566;2023-08-31T07:40:39;5.40;;;1.40;;
58152;SDS011;43967;51.634;5.566;2023-08-31T07:46:00;5.17;;;1.53;;
58152;SDS011;43967;51.634;5.566;2023-08-31T07:51:22;5.22;;;1.88;;
58152;SDS011;43967;51.634;5.566;2023-08-31T07:56:43;5.35;;;1.75;;
58152;SDS011;43967;51.634;5.566;2023-08-31T08:02:05;5.13;;;1.53;;
58152;SDS011;43967;51.634;5.566;2023-08-31T08:07:26;5.35;;;1.50;;
58152;SDS011;43967;51.634;5.566;2023-08-31T08:12:48;4.82;;;1.30;;
58152;SDS011;43967;51.634;5.566;2023-08-31T08:18:09;5.30;;;1.73;;
58152;SDS011;43967;51.634;5.566;2023-08-31T08:23:30;5.30;;;1.50;;
58152;SDS011;43967;51.634;5.566;2023-08-31T08:28:51;5.00;;;1.55;;
58152;SDS011;43967;51.634;5.566;2023-08-31T08:34:13;5.22;;;1.80;;
58152;SDS011;43967;51.634;5.566;2023-08-31T08:39:34;5.23;;;1.57;;
58152;SDS011;43967;51.634;5.566;2023-08-31T08:44:56;5.72;;;1.70;;
58152;SDS011;43967;51.634;5.566;2023-08-31T08:50:18;6.10;;;1.40;;
58152;SDS011;43967;51.634;5.566;2023-08-31T08:55:40;5.47;;;1.70;;
58152;SDS011;43967;51.634;5.566;2023-08-31T09:01:02;5.25;;;1.50;;
58152;SDS011;43967;51.634;5.566;2023-08-31T09:06:24;4.65;;;1.17;;
58152;SDS011;43967;51.634;5.566;2023-08-31T09:11:46;6.00;;;1.83;;
58152;SDS011;43967;51.634;5.566;2023-08-31T09:17:07;5.63;;;1.53;;
58152;SDS011;43967;51.634;5.566;2023-08-31T09:22:28;5.30;;;1.50;;
58152;SDS011;43967;51.634;5.566;2023-08-31T09:27:50;4.93;;;1.20;;
58152;SDS011;43967;51.634;5.566;2023-08-31T09:33:16;5.33;;;1.67;;
58152;SDS011;43967;51.634;5.566;2023-08-31T09:38:42;5.10;;;1.50;;
58152;SDS011;43967;51.634;5.566;2023-08-31T09:44:16;5.03;;;1.40;;
58152;SDS011;43967;51.634;5.566;2023-08-31T09:49:39;5.07;;;1.33;;
58152;SDS011;43967;51.634;5.566;2023-08-31T09:55:03;5.13;;;1.40;;
58152;SDS011;43967;51.634;5.566;2023-08-31T10:00:31;4.50;;;1.20;;
58152;SDS011;43967;51.634;5.566;2023-08-31T10:05:55;5.40;;;1.60;;
58152;SDS011;43967;51.634;5.566;2023-08-31T10:11:17;5.53;;;1.40;;
58152;SDS011;43967;51.634;5.566;2023-08-31T10:16:39;5.70;;;1.60;;
58152;SDS011;43967;51.634;5.566;2023-08-31T10:22:01;5.72;;;1.60;;
58152;SDS011;43967;51.634;5.566;2023-08-31T10:27:23;5.37;;;1.50;;
58152;SDS011;43967;51.634;5.566;2023-08-31T10:32:44;5.82;;;1.67;;
58152;SDS011;43967;51.634;5.566;2023-08-31T10:38:15;5.07;;;1.40;;
58152;SDS011;43967;51.634;5.566;2023-08-31T10:43:57;4.87;;;1.50;;
58152;SDS011;43967;51.634;5.566;2023-08-31T10:49:19;4.85;;;1.33;;
58152;SDS011;43967;51.634;5.566;2023-08-31T10:54:42;5.65;;;1.60;;
58152;SDS011;43967;51.634;5.566;2023-08-31T11:00:03;5.73;;;1.50;;
58152;SDS011;43967;51.634;5.566;2023-08-31T11:05:25;4.50;;;1.50;;
58152;SDS011;43967;51.634;5.566;2023-08-31T11:10:47;4.90;;;1.60;;
58152;SDS011;43967;51.634;5.566;2023-08-31T11:16:08;5.05;;;1.35;;
58152;SDS011;43967;51.634;5.566;2023-08-31T11:21:29;5.37;;;1.40;;
58152;SDS011;43967;51.634;5.566;2023-08-31T11:26:51;5.30;;;1.80;;
58152;SDS011;43967;51.634;5.566;2023-08-31T11:32:12;5.68;;;1.50;;
58152;SDS011;43967;51.634;5.566;2023-08-31T11:37:34;4.63;;;1.40;;
58152;SDS011;43967;51.634;5.566;2023-08-31T11:42:56;4.88;;;1.30;;
58152;SDS011;43967;51.634;5.566;2023-08-31T11:48:18;5.35;;;1.40;;
58152;SDS011;43967;51.634;5.566;2023-08-31T11:53:40;5.53;;;1.77;;
58152;SDS011;43967;51.634;5.566;2023-08-31T11:59:02;5.17;;;1.67;;
58152;SDS011;43967;51.634;5.566;2023-08-31T12:04:23;5.25;;;1.70;;
58152;SDS011;43967;51.634;5.566;2023-08-31T12:09:45;5.15;;;1.85;;
58152;SDS011;43967;51.634;5.566;2023-08-31T12:15:06;5.50;;;1.40;;
58152;SDS011;43967;51.634;5.566;2023-08-31T12:20:28;5.63;;;1.80;;
58152;SDS011;43967;51.634;5.566;2023-08-31T12:25:50;5.88;;;1.40;;
58152;SDS011;43967;51.634;5.566;2023-08-31T12:31:12;6.57;;;1.67;;
58152;SDS011;43967;51.634;5.566;2023-08-31T12:36:33;5.20;;;1.58;;
58152;SDS011;43967;51.634;5.566;2023-08-31T12:41:55;5.13;;;1.77;;
58152;SDS011;43967;51.634;5.566;2023-08-31T12:47:16;5.43;;;1.50;;
58152;SDS011;43967;51.634;5.566;2023-08-31T12:52:37;5.10;;;1.70;;
58152;SDS011;43967;51.634;5.566;2023-08-31T12:57:59;6.63;;;1.63;;
58152;SDS011;43967;51.634;5.566;2023-08-31T13:03:20;5.32;;;1.50;;
58152;SDS011;43967;51.634;5.566;2023-08-31T13:08:41;4.80;;;1.30;;
58152;SDS011;43967;51.634;5.566;2023-08-31T13:14:03;5.68;;;1.70;;
58152;SDS011;43967;51.634;5.566;2023-08-31T13:19:24;4.70;;;1.40;;
58152;SDS011;43967;51.634;5.566;2023-08-31T13:24:45;4.83;;;1.43;;
58152;SDS011;43967;51.634;5.566;2023-08-31T13:30:07;5.53;;;1.63;;
58152;SDS011;43967;51.634;5.566;2023-08-31T13:35:28;5.05;;;1.40;;
58152;SDS011;43967;51.634;5.566;2023-08-31T13:40:56;5.93;;;1.70;;
58152;SDS011;43967;51.634;5.566;2023-08-31T13:46:17;8.43;;;2.03;;
58152;SDS011;43967;51.634;5.566;2023-08-31T13:51:39;11.00;;;1.38;;
58152;SDS011;43967;51.634;5.566;2023-08-31T13:57:00;11.43;;;1.80;;
58152;SDS011;43967;51.634;5.566;2023-08-31T14:02:21;16.57;;;2.00;;
58152;SDS011;43967;51.634;5.566;2023-08-31T14:07:43;9.52;;;2.20;;
58152;SDS011;43967;51.634;5.566;2023-08-31T14:13:04;13.25;;;1.80;;
58152;SDS011;43967;51.634;5.566;2023-08-31T14:18:28;8.97;;;1.80;;
58152;SDS011;43967;51.634;5.566;2023-08-31T14:23:50;10.45;;;1.65;;
58152;SDS011;43967;51.634;5.566;2023-08-31T14:29:11;11.02;;;2.13;;
58152;SDS011;43967;51.634;5.566;2023-08-31T14:34:32;12.63;;;2.40;;
58152;SDS011;43967;51.634;5.566;2023-08-31T14:39:53;10.63;;;2.00;;
58152;SDS011;43967;51.634;5.566;2023-08-31T14:45:15;8.35;;;1.90;;
58152;SDS011;43967;51.634;5.566;2023-08-31T14:50:39;11.02;;;2.00;;
58152;SDS011;43967;51.634;5.566;2023-08-31T14:56:02;7.00;;;1.50;;
58152;SDS011;43967;51.634;5.566;2023-08-31T15:01:24;7.75;;;1.90;;
58152;SDS011;43967;51.634;5.566;2023-08-31T15:06:45;9.35;;;1.90;;
58152;SDS011;43967;51.634;5.566;2023-08-31T15:12:06;8.77;;;2.00;;
58152;SDS011;43967;51.634;5.566;2023-08-31T15:17:28;11.00;;;1.92;;
58152;SDS011;43967;51.634;5.566;2023-08-31T15:22:49;8.98;;;1.50;;
58152;SDS011;43967;51.634;5.566;2023-08-31T15:28:10;8.93;;;1.77;;
58152;SDS011;43967;51.634;5.566;2023-08-31T15:33:32;15.97;;;2.37;;
58152;SDS011;43967;51.634;5.566;2023-08-31T15:38:53;7.88;;;2.05;;
58152;SDS011;43967;51.634;5.566;2023-08-31T15:44:14;10.85;;;2.53;;
58152;SDS011;43967;51.634;5.566;2023-08-31T15:49:35;9.33;;;2.27;;
58152;SDS011;43967;51.634;5.566;2023-08-31T15:54:57;8.48;;;2.40;;
58152;SDS011;43967;51.634;5.566;2023-08-31T16:00:19;9.23;;;3.42;;
58152;SDS011;43967;51.634;5.566;2023-08-31T16:05:40;8.63;;;3.10;;
58152;SDS011;43967;51.634;5.566;2023-08-31T16:11:02;9.50;;;3.30;;
58152;SDS011;43967;51.634;5.566;2023-08-31T16:16:24;27.90;;;8.68;;
58152;SDS011;43967;51.634;5.566;2023-08-31T16:21:45;81.57;;;39.00;;
58152;SDS011;43967;51.634;5.566;2023-08-31T16:27:07;84.77;;;38.73;;
58152;SDS011;43967;51.634;5.566;2023-08-31T16:32:28;66.47;;;36.67;;
58152;SDS011;43967;51.634;5.566;2023-08-31T16:37:49;67.60;;;34.53;;
58152;SDS011;43967;51.634;5.566;2023-08-31T16:43:11;56.03;;;27.37;;
58152;SDS011;43967;51.634;5.566;2023-08-31T16:48:32;45.72;;;25.10;;
58152;SDS011;43967;51.634;5.566;2023-08-31T16:53:53;43.03;;;21.75;;
58152;SDS011;43967;51.634;5.566;2023-08-31T16:59:14;37.43;;;19.63;;
58152;SDS011;43967;51.634;5.566;2023-08-31T17:04:37;31.42;;;15.55;;
58152;SDS011;43967;51.634;5.566;2023-08-31T17:09:58;28.63;;;14.48;;
58152;SDS011;43967;51.634;5.566;2023-08-31T17:15:19;24.70;;;12.70;;
58152;SDS011;43967;51.634;5.566;2023-08-31T17:20:40;22.87;;;10.97;;
58152;SDS011;43967;51.634;5.566;2023-08-31T17:26:02;18.70;;;8.82;;
58152;SDS011;43967;51.634;5.566;2023-08-31T17:31:23;19.98;;;9.25;;
58152;SDS011;43967;51.634;5.566;2023-08-31T17:36:44;20.13;;;9.03;;
58152;SDS011;43967;51.634;5.566;2023-08-31T17:42:06;21.67;;;9.23;;
58152;SDS011;43967;51.634;5.566;2023-08-31T17:47:27;16.45;;;8.15;;
58152;SDS011;43967;51.634;5.566;2023-08-31T17:52:48;19.87;;;7.90;;
58152;SDS011;43967;51.634;5.566;2023-08-31T17:58:09;16.23;;;7.63;;
58152;SDS011;43967;51.634;5.566;2023-08-31T18:03:31;19.35;;;7.00;;
58152;SDS011;43967;51.634;5.566;2023-08-31T18:08:52;16.93;;;7.37;;
58152;SDS011;43967;51.634;5.566;2023-08-31T18:14:13;14.70;;;6.00;;
58152;SDS011;43967;51.634;5.566;2023-08-31T18:19:35;16.92;;;6.75;;
58152;SDS011;43967;51.634;5.566;2023-08-31T18:24:56;16.95;;;6.68;;
58152;SDS011;43967;51.634;5.566;2023-08-31T18:30:17;11.80;;;5.60;;
58152;SDS011;43967;51.634;5.566;2023-08-31T18:35:38;13.93;;;6.15;;
58152;SDS011;43967;51.634;5.566;2023-08-31T18:41:00;15.38;;;6.22;;
58152;SDS011;43967;51.634;5.566;2023-08-31T18:46:21;14.70;;;6.13;;
58152;SDS011;43967;51.634;5.566;2023-08-31T18:51:42;12.25;;;5.53;;
58152;SDS011;43967;51.634;5.566;2023-08-31T18:57:04;12.38;;;6.05;;
58152;SDS011;43967;51.634;5.566;2023-08-31T19:02:26;16.07;;;5.93;;
58152;SDS011;43967;51.634;5.566;2023-08-31T19:07:47;14.60;;;5.20;;
58152;SDS011;43967;51.634;5.566;2023-08-31T19:13:08;12.18;;;5.30;;
58152;SDS011;43967;51.634;5.566;2023-08-31T19:18:30;12.20;;;5.53;;
58152;SDS011;43967;51.634;5.566;2023-08-31T19:23:51;11.90;;;4.73;;
58152;SDS011;43967;51.634;5.566;2023-08-31T19:29:12;14.00;;;5.18;;
58152;SDS011;43967;51.634;5.566;2023-08-31T19:34:34;14.85;;;5.57;;
58152;SDS011;43967;51.634;5.566;2023-08-31T19:39:55;13.23;;;4.47;;
58152;SDS011;43967;51.634;5.566;2023-08-31T19:45:16;13.90;;;5.28;;
58152;SDS011;43967;51.634;5.566;2023-08-31T19:50:38;11.30;;;4.45;;
58152;SDS011;43967;51.634;5.566;2023-08-31T19:56:03;13.73;;;4.73;;
58152;SDS011;43967;51.634;5.566;2023-08-31T20:01:25;10.43;;;4.70;;
58152;SDS011;43967;51.634;5.566;2023-08-31T20:06:47;12.68;;;4.32;;
58152;SDS011;43967;51.634;5.566;2023-08-31T20:12:08;13.95;;;4.30;;
58152;SDS011;43967;51.634;5.566;2023-08-31T20:17:29;12.43;;;4.40;;
58152;SDS011;43967;51.634;5.566;2023-08-31T20:22:50;17.08;;;4.30;;
58152;SDS011;43967;51.634;5.566;2023-08-31T20:28:12;11.15;;;4.32;;
58152;SDS011;43967;51.634;5.566;2023-08-31T20:33:33;12.33;;;4.40;;
58152;SDS011;43967;51.634;5.566;2023-08-31T20:38:54;13.20;;;4.20;;
58152;SDS011;43967;51.634;5.566;2023-08-31T20:44:15;10.52;;;4.00;;
58152;SDS011;43967;51.634;5.566;2023-08-31T20:49:37;10.60;;;4.23;;
58152;SDS011;43967;51.634;5.566;2023-08-31T20:54:59;10.27;;;4.47;;
58152;SDS011;43967;51.634;5.566;2023-08-31T21:00:20;11.20;;;3.97;;
58152;SDS011;43967;51.634;5.566;2023-08-31T21:05:42;12.07;;;3.67;;
58152;SDS011;43967;51.634;5.566;2023-08-31T21:11:03;9.47;;;4.00;;
58152;SDS011;43967;51.634;5.566;2023-08-31T21:16:25;10.07;;;3.63;;
58152;SDS011;43967;51.634;5.566;2023-08-31T21:21:46;9.00;;;3.75;;
58152;SDS011;43967;51.634;5.566;2023-08-31T21:27:07;11.27;;;3.97;;
58152;SDS011;43967;51.634;5.566;2023-08-31T21:32:29;8.50;;;3.60;;
58152;SDS011;43967;51.634;5.566;2023-08-31T21:37:50;9.27;;;3.80;;
58152;SDS011;43967;51.634;5.566;2023-08-31T21:43:11;9.07;;;3.60;;
58152;SDS011;43967;51.634;5.566;2023-08-31T21:48:32;9.30;;;3.70;;
58152;SDS011;43967;51.634;5.566;2023-08-31T21:53:54;11.23;;;3.92;;
58152;SDS011;43967;51.634;5.566;2023-08-31T21:59:15;10.18;;;4.13;;
58152;SDS011;43967;51.634;5.566;2023-08-31T22:04:36;9.93;;;3.57;;
58152;SDS011;43967;51.634;5.566;2023-08-31T22:09:57;11.32;;;3.75;;
58152;SDS011;43967;51.634;5.566;2023-08-31T22:15:20;9.85;;;3.40;;
58152;SDS011;43967;51.634;5.566;2023-08-31T22:20:42;10.37;;;3.73;;
58152;SDS011;43967;51.634;5.566;2023-08-31T22:26:03;9.07;;;3.17;;
58152;SDS011;43967;51.634;5.566;2023-08-31T22:31:25;9.48;;;3.63;;
58152;SDS011;43967;51.634;5.566;2023-08-31T22:36:46;9.17;;;3.67;;
58152;SDS011;43967;51.634;5.566;2023-08-31T22:42:08;8.93;;;3.30;;
58152;SDS011;43967;51.634;5.566;2023-08-31T22:47:30;9.52;;;3.47;;
58152;SDS011;43967;51.634;5.566;2023-08-31T22:52:51;10.57;;;3.70;;
58152;SDS011;43967;51.634;5.566;2023-08-31T22:58:12;7.80;;;3.33;;
58152;SDS011;43967;51.634;5.566;2023-08-31T23:03:34;9.18;;;3.15;;
58152;SDS011;43967;51.634;5.566;2023-08-31T23:08:55;9.73;;;3.40;;
58152;SDS011;43967;51.634;5.566;2023-08-31T23:14:16;8.03;;;2.77;;
58152;SDS011;43967;51.634;5.566;2023-08-31T23:19:37;7.80;;;2.75;;
58152;SDS011;43967;51.634;5.566;2023-08-31T23:24:59;8.25;;;3.03;;
58152;SDS011;43967;51.634;5.566;2023-08-31T23:30:20;8.40;;;2.90;;
58152;SDS011;43967;51.634;5.566;2023-08-31T23:35:42;9.50;;;3.27;;
58152;SDS011;43967;51.634;5.566;2023-08-31T23:41:03;8.43;;;3.22;;
58152;SDS011;43967;51.634;5.566;2023-08-31T23:46:24;9.75;;;3.38;;
58152;SDS011;43967;51.634;5.566;2023-08-31T23:51:45;8.70;;;3.17;;
58152;SDS011;43967;51.634;5.566;2023-08-31T23:57:07;8.50;;;2.90;;
